createdAt,value
2023-03-05T00:00:54.697Z,5.80
2023-03-05T00:03:21.244Z,5.70
2023-03-05T00:05:47.764Z,5.70
2023-03-05T00:08:14.261Z,5.70
2023-03-05T00:10:40.820Z,5.70
2023-03-05T00:13:07.790Z,5.70
2023-03-05T00:15:34.317Z,5.60
2023-03-05T00:18:00.805Z,5.60
2023-03-05T00:20:27.394Z,5.60
2023-03-05T00:22:53.925Z,5.60
2023-03-05T00:25:20.512Z,5.60
2023-03-05T00:27:47.138Z,5.60
2023-03-05T00:30:14.107Z,5.60
2023-03-05T00:32:40.634Z,5.60
2023-03-05T00:35:07.587Z,5.60
2023-03-05T00:37:34.126Z,5.60
2023-03-05T00:40:00.724Z,5.60
2023-03-05T00:42:27.390Z,5.60
2023-03-05T00:44:53.897Z,5.60
2023-03-05T00:47:20.461Z,5.50
2023-03-05T00:49:47.079Z,5.50
2023-03-05T00:52:13.660Z,5.50
2023-03-05T00:54:40.246Z,5.50
2023-03-05T00:57:06.770Z,5.50
2023-03-05T00:59:33.385Z,5.50
2023-03-05T01:01:59.961Z,5.50
2023-03-05T01:04:26.615Z,5.50
2023-03-05T01:06:53.330Z,5.50
2023-03-05T01:09:21.927Z,5.50
2023-03-05T01:11:48.597Z,5.50
2023-03-05T01:14:15.160Z,5.50
2023-03-05T01:16:41.667Z,5.50
2023-03-05T01:19:08.487Z,5.50
2023-03-05T01:21:35.999Z,5.50
2023-03-05T01:24:03.105Z,5.40
2023-03-05T01:26:29.630Z,5.40
2023-03-05T01:28:56.218Z,5.40
2023-03-05T01:31:23.485Z,5.50
2023-03-05T01:33:52.973Z,5.50
2023-03-05T01:36:20.571Z,5.40
2023-03-05T01:38:47.812Z,5.40
2023-03-05T01:41:16.424Z,5.50
2023-03-05T01:43:43.933Z,5.40
2023-03-05T01:46:16.666Z,5.40
2023-03-05T01:48:45.953Z,5.40
2023-03-05T01:51:12.556Z,5.40
2023-03-05T01:53:39.883Z,5.40
2023-03-05T01:56:06.849Z,5.40
2023-03-05T01:58:33.610Z,5.40
2023-03-05T02:01:00.587Z,5.40
2023-03-05T02:03:27.129Z,5.40
2023-03-05T02:05:53.726Z,5.40
2023-03-05T02:08:22.326Z,5.40
2023-03-05T02:10:54.199Z,5.40
2023-03-05T02:13:23.616Z,5.50
2023-03-05T02:15:52.066Z,5.50
2023-03-05T02:18:19.693Z,5.50
2023-03-05T02:20:56.494Z,5.50
2023-03-05T02:23:27.108Z,5.50
2023-03-05T02:25:54.034Z,5.50
2023-03-05T02:28:31.547Z,5.50
2023-03-05T02:30:58.233Z,5.50
2023-03-05T02:33:25.349Z,5.50
2023-03-05T02:35:52.346Z,5.50
2023-03-05T02:38:21.056Z,5.40
2023-03-05T02:40:47.646Z,5.40
2023-03-05T02:43:14.325Z,5.40
2023-03-05T02:45:40.921Z,5.40
2023-03-05T02:48:07.791Z,5.40
2023-03-05T02:50:35.349Z,5.40
2023-03-05T02:53:02.218Z,5.30
2023-03-05T02:55:28.768Z,5.30
2023-03-05T02:57:55.342Z,5.30
2023-03-05T03:00:22.069Z,5.30
2023-03-05T03:02:48.733Z,5.30
2023-03-05T03:05:15.758Z,5.30
2023-03-05T03:07:42.378Z,5.30
2023-03-05T03:10:09.874Z,5.20
2023-03-05T03:12:44.409Z,5.20
2023-03-05T03:15:13.643Z,5.30
2023-03-05T03:17:40.319Z,5.20
2023-03-05T03:20:09.279Z,5.30
2023-03-05T03:22:36.206Z,5.30
2023-03-05T03:25:04.621Z,5.20
2023-03-05T03:27:31.158Z,5.20
2023-03-05T03:30:02.450Z,5.20
2023-03-05T03:32:29.396Z,5.30
2023-03-05T03:34:56.228Z,5.30
2023-03-05T03:37:23.047Z,5.30
2023-03-05T03:39:49.575Z,5.30
2023-03-05T03:42:20.913Z,5.30
2023-03-05T03:44:47.728Z,5.20
2023-03-05T03:47:14.305Z,5.20
2023-03-05T03:49:41.239Z,5.20
2023-03-05T03:52:07.905Z,5.20
2023-03-05T03:54:35.004Z,5.10
2023-03-05T03:57:01.582Z,5.10
2023-03-05T03:59:28.122Z,5.10
2023-03-05T04:01:54.734Z,5.10
2023-03-05T04:04:21.270Z,5.00
2023-03-05T04:06:47.803Z,5.00
2023-03-05T04:09:14.331Z,5.00
2023-03-05T04:11:40.858Z,5.00
2023-03-05T04:14:07.389Z,5.00
2023-03-05T04:16:33.988Z,4.90
2023-03-05T04:19:00.526Z,4.90
2023-03-05T04:21:27.102Z,4.90
2023-03-05T04:23:53.616Z,4.90
2023-03-05T04:26:20.149Z,4.90
2023-03-05T04:28:48.202Z,4.90
2023-03-05T04:31:15.025Z,4.80
2023-03-05T04:33:41.661Z,4.80
2023-03-05T04:36:08.740Z,4.80
2023-03-05T04:38:35.382Z,4.70
2023-03-05T04:41:01.939Z,4.70
2023-03-05T04:43:28.525Z,4.60
2023-03-05T04:45:55.732Z,4.60
2023-03-05T04:48:22.278Z,4.60
2023-03-05T04:50:48.768Z,4.60
2023-03-05T04:53:15.427Z,4.60
2023-03-05T04:55:43.287Z,4.60
2023-03-05T04:58:10.170Z,4.60
2023-03-05T05:00:36.902Z,4.60
2023-03-05T05:03:03.640Z,4.50
2023-03-05T05:05:30.309Z,4.60
2023-03-05T05:07:57.959Z,4.60
2023-03-05T05:10:25.957Z,4.60
2023-03-05T05:12:52.912Z,4.60
2023-03-05T05:15:19.788Z,4.60
2023-03-05T05:17:46.457Z,4.60
2023-03-05T05:20:14.846Z,4.60
2023-03-05T05:22:42.085Z,4.60
2023-03-05T05:25:10.371Z,4.60
2023-03-05T05:27:38.996Z,4.60
2023-03-05T05:30:06.028Z,4.60
2023-03-05T05:32:32.663Z,4.60
2023-03-05T05:34:59.275Z,4.60
2023-03-05T05:37:26.685Z,4.60
2023-03-05T05:39:53.397Z,4.60
2023-03-05T05:42:22.085Z,4.60
2023-03-05T05:44:49.520Z,4.50
2023-03-05T05:47:17.405Z,4.60
2023-03-05T05:49:43.949Z,4.60
2023-03-05T05:52:10.583Z,4.60
2023-03-05T05:54:37.946Z,4.60
2023-03-05T05:57:04.540Z,4.60
2023-03-05T05:59:31.200Z,4.60
2023-03-05T06:01:57.802Z,4.60
2023-03-05T06:04:24.379Z,4.60
2023-03-05T06:06:50.955Z,4.60
2023-03-05T06:09:17.757Z,4.60
2023-03-05T06:11:44.372Z,4.60
2023-03-05T06:14:12.095Z,4.60
2023-03-05T06:16:39.194Z,4.60
2023-03-05T06:19:05.805Z,4.60
2023-03-05T06:21:33.269Z,4.60
2023-03-05T06:23:59.933Z,4.60
2023-03-05T06:26:26.751Z,4.60
2023-03-05T06:28:53.695Z,4.60
2023-03-05T06:31:23.160Z,4.60
2023-03-05T06:33:50.130Z,4.60
2023-03-05T06:36:19.227Z,4.70
2023-03-05T06:38:47.877Z,4.60
2023-03-05T06:41:18.407Z,4.60
2023-03-05T06:43:47.432Z,4.60
2023-03-05T06:46:25.135Z,4.60
2023-03-05T06:48:52.726Z,4.50
2023-03-05T06:51:22.596Z,4.50
2023-03-05T06:53:49.766Z,4.50
2023-03-05T06:56:17.563Z,4.50
2023-03-05T06:58:48.614Z,4.60
2023-03-05T07:01:15.811Z,4.60
2023-03-05T07:03:43.079Z,4.70
2023-03-05T07:06:13.452Z,4.70
2023-03-05T07:08:40.120Z,4.70
2023-03-05T07:11:12.239Z,4.70
2023-03-05T07:13:38.860Z,4.80
2023-03-05T07:16:09.784Z,4.70
2023-03-05T07:18:36.700Z,4.80
2023-03-05T07:21:05.729Z,4.80
2023-03-05T07:23:32.928Z,4.80
2023-03-05T07:26:03.917Z,4.80
2023-03-05T07:28:31.458Z,4.80
2023-03-05T07:31:00.242Z,4.80
2023-03-05T07:33:27.602Z,4.80
2023-03-05T07:35:54.734Z,4.90
2023-03-05T07:38:21.568Z,4.90
2023-03-05T07:40:48.567Z,4.90
2023-03-05T07:43:15.358Z,4.90
2023-03-05T07:45:44.115Z,4.90
2023-03-05T07:48:16.659Z,4.90
2023-03-05T07:50:44.083Z,5.00
2023-03-05T07:53:11.064Z,5.00
2023-03-05T07:55:45.345Z,5.10
2023-03-05T07:58:13.307Z,5.10
2023-03-05T08:00:40.526Z,5.10
2023-03-05T08:03:07.213Z,5.10
2023-03-05T08:05:33.995Z,5.10
2023-03-05T08:08:00.509Z,5.10
2023-03-05T08:10:27.124Z,5.20
2023-03-05T08:12:53.823Z,5.30
2023-03-05T08:15:20.429Z,5.40
2023-03-05T08:17:47.134Z,5.50
2023-03-05T08:20:13.883Z,5.60
2023-03-05T08:22:40.506Z,5.60
2023-03-05T08:25:08.202Z,5.70
2023-03-05T08:27:39.002Z,5.70
2023-03-05T08:30:06.593Z,5.70
2023-03-05T08:32:33.492Z,5.80
2023-03-05T08:35:01.348Z,5.70
2023-03-05T08:37:27.877Z,5.70
2023-03-05T08:39:56.064Z,5.60
2023-03-05T08:42:23.628Z,5.60
2023-03-05T08:44:50.491Z,5.60
2023-03-05T08:47:18.658Z,5.50
2023-03-05T08:49:45.194Z,5.50
2023-03-05T08:52:12.191Z,5.50
2023-03-05T08:54:38.706Z,5.50
2023-03-05T08:57:05.362Z,5.50
2023-03-05T08:59:32.028Z,5.50
2023-03-05T09:02:01.969Z,5.60
2023-03-05T09:04:28.587Z,5.60
2023-03-05T09:06:55.290Z,5.70
2023-03-05T09:09:22.848Z,5.70
2023-03-05T09:11:49.563Z,5.70
2023-03-05T09:14:16.100Z,5.70
2023-03-05T09:16:42.700Z,5.70
2023-03-05T09:19:10.488Z,5.70
2023-03-05T09:21:37.110Z,5.80
2023-03-05T09:24:04.379Z,5.70
2023-03-05T09:26:30.995Z,5.80
2023-03-05T09:28:58.032Z,5.70
2023-03-05T09:31:24.895Z,5.80
2023-03-05T09:33:51.443Z,5.70
2023-03-05T09:36:23.324Z,5.70
2023-03-05T09:38:50.357Z,5.70
2023-03-05T09:41:41.655Z,5.70
2023-03-05T09:44:26.145Z,5.70
2023-03-05T09:47:35.812Z,5.80
2023-03-05T09:50:11.548Z,5.90
2023-03-05T09:52:50.449Z,5.90
2023-03-05T09:55:36.035Z,6.00
2023-03-05T09:58:33.984Z,6.20
2023-03-05T10:01:13.898Z,6.50
2023-03-05T10:03:59.686Z,6.70
2023-03-05T10:06:34.557Z,6.80
2023-03-05T10:09:10.264Z,6.70
2023-03-05T10:11:57.255Z,6.60
2023-03-05T10:14:31.320Z,6.70
2023-03-05T10:17:49.649Z,6.70
2023-03-05T10:20:30.760Z,6.80
2023-03-05T10:23:12.509Z,7.10
2023-03-05T10:26:10.033Z,7.20
2023-03-05T10:28:55.053Z,7.30
2023-03-05T10:31:46.166Z,7.30
2023-03-05T10:34:38.065Z,7.30
2023-03-05T10:37:23.375Z,7.20
2023-03-05T10:39:55.736Z,7.00
2023-03-05T10:42:37.732Z,6.90
2023-03-05T10:45:17.999Z,6.70
2023-03-05T10:48:20.009Z,6.70
2023-03-05T10:50:51.659Z,6.60
2023-03-05T10:53:24.263Z,6.50
2023-03-05T10:55:55.990Z,6.60
2023-03-05T10:58:24.784Z,6.60
2023-03-05T11:00:58.612Z,6.60
2023-03-05T11:03:25.294Z,6.60
2023-03-05T11:06:00.404Z,6.60
2023-03-05T11:08:37.347Z,6.60
2023-03-05T11:11:14.035Z,6.50
2023-03-05T11:13:57.869Z,6.40
2023-03-05T11:16:29.575Z,6.30
2023-03-05T11:19:14.906Z,6.20
2023-03-05T11:21:43.064Z,6.10
2023-03-05T11:24:19.587Z,6.10
2023-03-05T11:26:54.163Z,5.90
2023-03-05T11:29:25.581Z,5.80
2023-03-05T11:31:52.746Z,5.60
2023-03-05T11:34:19.262Z,5.60
2023-03-05T11:36:53.124Z,5.40
2023-03-05T11:39:24.834Z,5.30
2023-03-05T11:42:03.105Z,5.30
2023-03-05T11:44:34.505Z,5.30
2023-03-05T11:47:28.392Z,5.40
2023-03-05T11:50:04.725Z,5.40
2023-03-05T11:52:42.145Z,5.50
2023-03-05T11:55:17.722Z,5.60
2023-03-05T11:57:56.930Z,5.60
2023-03-05T12:00:28.551Z,5.70
2023-03-05T12:02:58.392Z,5.70
2023-03-05T12:05:26.311Z,5.70
2023-03-05T12:08:01.573Z,5.70
2023-03-05T12:10:28.349Z,5.80
2023-03-05T12:13:30.298Z,6.00
2023-03-05T12:16:24.386Z,6.20
2023-03-05T12:19:18.335Z,6.60
2023-03-05T12:21:50.085Z,6.80
2023-03-05T12:24:28.161Z,7.00
2023-03-05T12:27:02.917Z,6.90
2023-03-05T12:29:54.257Z,7.00
2023-03-05T12:32:25.253Z,7.00
2023-03-05T12:34:58.669Z,7.10
2023-03-05T12:37:25.417Z,7.10
2023-03-05T12:40:12.213Z,7.10
2023-03-05T12:42:38.734Z,7.10
2023-03-05T12:45:19.114Z,7.00
2023-03-05T12:47:46.977Z,6.90
2023-03-05T12:50:28.987Z,6.90
2023-03-05T12:52:58.105Z,7.00
2023-03-05T12:55:47.281Z,7.10
2023-03-05T12:58:16.778Z,7.30
2023-03-05T13:00:47.229Z,7.20
2023-03-05T13:03:30.302Z,7.40
2023-03-05T13:05:59.304Z,7.50
2023-03-05T13:08:30.346Z,7.50
2023-03-05T13:11:06.529Z,7.50
2023-03-05T13:13:37.161Z,7.40
2023-03-05T13:16:04.880Z,7.40
2023-03-05T13:18:32.896Z,7.30
2023-03-05T13:21:26.932Z,7.20
2023-03-05T13:23:58.871Z,7.30
2023-03-05T13:26:35.702Z,7.30
2023-03-05T13:29:13.935Z,7.20
2023-03-05T13:31:57.266Z,7.10
2023-03-05T13:34:37.417Z,7.00
2023-03-05T13:37:23.706Z,6.90
2023-03-05T13:39:55.102Z,6.90
2023-03-05T13:42:28.540Z,7.00
2023-03-05T13:45:05.756Z,7.00
2023-03-05T13:47:34.856Z,7.00
2023-03-05T13:50:21.919Z,7.10
2023-03-05T13:52:48.513Z,7.10
2023-03-05T13:55:17.162Z,7.10
2023-03-05T13:57:46.813Z,7.10
2023-03-05T14:00:34.184Z,7.10
2023-03-05T14:03:20.639Z,7.10
2023-03-05T14:05:49.775Z,7.20
2023-03-05T14:08:26.364Z,7.20
2023-03-05T14:10:54.736Z,7.00
2023-03-05T14:13:24.530Z,7.00
2023-03-05T14:16:05.861Z,7.00
2023-03-05T14:18:33.193Z,6.90
2023-03-05T14:21:08.860Z,6.90
2023-03-05T14:23:44.406Z,6.70
2023-03-05T14:26:37.648Z,6.70
2023-03-05T14:29:17.406Z,6.70
2023-03-05T14:32:05.773Z,6.60
2023-03-05T14:34:38.805Z,6.60
2023-03-05T14:37:16.318Z,6.50
2023-03-05T14:40:05.237Z,6.50
2023-03-05T14:42:38.943Z,6.40
2023-03-05T14:45:18.050Z,6.30
2023-03-05T14:47:45.225Z,6.40
2023-03-05T14:50:20.823Z,6.30
2023-03-05T14:52:50.798Z,6.40
2023-03-05T14:55:20.448Z,6.40
2023-03-05T14:57:47.891Z,6.40
2023-03-05T15:00:21.935Z,6.30
2023-03-05T15:02:48.794Z,6.30
2023-03-05T15:05:17.004Z,6.30
2023-03-05T15:07:44.544Z,6.20
2023-03-05T15:10:23.011Z,6.30
2023-03-05T15:12:51.118Z,6.20
2023-03-05T15:15:22.553Z,6.20
2023-03-05T15:17:55.986Z,6.10
2023-03-05T15:20:25.499Z,6.10
2023-03-05T15:22:52.953Z,6.00
2023-03-05T15:25:21.411Z,6.00
2023-03-05T15:27:48.363Z,6.00
2023-03-05T15:30:36.749Z,6.00
2023-03-05T15:33:09.443Z,6.00
2023-03-05T15:35:36.264Z,5.90
2023-03-05T15:38:03.017Z,5.90
2023-03-05T15:40:29.790Z,5.80
2023-03-05T15:42:57.710Z,5.80
2023-03-05T15:45:25.055Z,5.80
2023-03-05T15:47:52.970Z,5.70
2023-03-05T15:50:21.061Z,5.70
2023-03-05T15:52:48.396Z,5.70
2023-03-05T15:55:15.011Z,5.70
2023-03-05T15:57:44.910Z,5.70
2023-03-05T16:00:12.637Z,5.70
2023-03-05T16:02:39.161Z,5.70
2023-03-05T16:05:06.298Z,5.70
2023-03-05T16:07:36.605Z,5.70
2023-03-05T16:10:04.114Z,5.80
2023-03-05T16:12:40.546Z,5.80
2023-03-05T16:15:13.458Z,5.80
2023-03-05T16:17:44.015Z,5.80
2023-03-05T16:20:12.258Z,5.80
2023-03-05T16:22:39.302Z,5.80
2023-03-05T16:25:06.442Z,5.80
2023-03-05T16:27:33.492Z,5.80
2023-03-05T16:30:00.132Z,5.80
2023-03-05T16:32:26.826Z,5.90
2023-03-05T16:34:53.377Z,5.80
2023-03-05T16:37:22.776Z,5.80
2023-03-05T16:39:49.415Z,5.80
2023-03-05T16:42:17.182Z,5.80
2023-03-05T16:44:44.617Z,5.70
2023-03-05T16:47:12.194Z,5.70
2023-03-05T16:49:39.491Z,5.70
2023-03-05T16:52:18.323Z,5.60
2023-03-05T16:54:45.310Z,5.60
2023-03-05T16:57:12.157Z,5.50
2023-03-05T16:59:38.744Z,5.50
2023-03-05T17:02:05.561Z,5.50
2023-03-05T17:04:32.488Z,5.50
2023-03-05T17:06:59.047Z,5.40
2023-03-05T17:09:25.646Z,5.40
2023-03-05T17:11:53.466Z,5.40
2023-03-05T17:14:20.997Z,5.40
2023-03-05T17:16:47.667Z,5.30
2023-03-05T17:19:14.763Z,5.30
2023-03-05T17:21:42.546Z,5.30
2023-03-05T17:24:10.168Z,5.30
2023-03-05T17:26:36.963Z,5.30
2023-03-05T17:29:07.340Z,5.40
2023-03-05T17:31:34.404Z,5.30
2023-03-05T17:34:01.206Z,5.30
2023-03-05T17:36:27.801Z,5.30
2023-03-05T17:38:54.611Z,5.30
2023-03-05T17:41:21.901Z,5.30
2023-03-05T17:43:48.654Z,5.30
2023-03-05T17:46:16.657Z,5.30
2023-03-05T17:48:43.307Z,5.20
2023-03-05T17:51:12.768Z,5.20
2023-03-05T17:53:40.103Z,5.20
2023-03-05T17:56:11.365Z,5.20
2023-03-05T17:58:38.623Z,5.20
2023-03-05T18:01:06.632Z,5.20
2023-03-05T18:03:33.423Z,5.20
2023-03-05T18:06:00.139Z,5.20
2023-03-05T18:08:26.640Z,5.20
2023-03-05T18:10:53.946Z,5.20
2023-03-05T18:13:20.582Z,5.20
2023-03-05T18:15:47.714Z,5.20
2023-03-05T18:18:15.419Z,5.20
2023-03-05T18:20:41.990Z,5.20
2023-03-05T18:23:09.345Z,5.20
2023-03-05T18:25:36.307Z,5.10
2023-03-05T18:28:06.234Z,5.10
2023-03-05T18:30:33.599Z,5.10
2023-03-05T18:33:00.782Z,5.10
2023-03-05T18:35:29.055Z,5.10
2023-03-05T18:37:56.001Z,5.10
2023-03-05T18:40:24.322Z,5.10
2023-03-05T18:42:51.102Z,5.10
2023-03-05T18:45:20.165Z,5.00
2023-03-05T18:47:47.837Z,5.00
2023-03-05T18:50:18.357Z,5.00
2023-03-05T18:52:45.189Z,5.00
2023-03-05T18:55:20.459Z,5.00
2023-03-05T18:57:47.181Z,4.90
2023-03-05T19:00:16.128Z,4.90
2023-03-05T19:02:42.724Z,4.90
2023-03-05T19:05:10.136Z,4.90
2023-03-05T19:07:37.902Z,4.80
2023-03-05T19:10:09.878Z,4.80
2023-03-05T19:12:45.247Z,4.80
2023-03-05T19:15:13.080Z,4.90
2023-03-05T19:17:39.839Z,4.90
2023-03-05T19:20:07.866Z,5.00
2023-03-05T19:22:34.703Z,5.10
2023-03-05T19:25:01.672Z,5.20
2023-03-05T19:27:28.771Z,5.10
2023-03-05T19:29:55.336Z,5.20
2023-03-05T19:32:23.501Z,5.10
2023-03-05T19:34:50.715Z,5.10
2023-03-05T19:37:18.130Z,5.00
2023-03-05T19:39:44.728Z,5.00
2023-03-05T19:42:11.637Z,5.00
2023-03-05T19:44:38.665Z,5.00
2023-03-05T19:47:06.053Z,5.00
2023-03-05T19:49:32.756Z,5.00
2023-03-05T19:51:59.613Z,5.00
2023-03-05T19:54:26.152Z,4.90
2023-03-05T19:56:54.937Z,4.90
2023-03-05T19:59:22.367Z,4.90
2023-03-05T20:01:49.698Z,4.90
2023-03-05T20:04:22.178Z,4.90
2023-03-05T20:06:48.880Z,4.80
2023-03-05T20:09:16.255Z,4.80
2023-03-05T20:11:43.305Z,4.80
2023-03-05T20:14:10.279Z,4.80
2023-03-05T20:16:38.069Z,4.80
2023-03-05T20:19:06.897Z,4.80
2023-03-05T20:21:37.003Z,4.80
2023-03-05T20:24:09.448Z,4.80
2023-03-05T20:26:38.035Z,4.80
2023-03-05T20:29:05.171Z,4.80
2023-03-05T20:31:35.152Z,4.70
2023-03-05T20:34:01.729Z,4.70
2023-03-05T20:36:28.215Z,4.70
2023-03-05T20:38:55.697Z,4.70
2023-03-05T20:41:22.209Z,4.70
2023-03-05T20:43:50.810Z,4.70
2023-03-05T20:46:20.727Z,4.70
2023-03-05T20:48:49.414Z,4.70
2023-03-05T20:51:26.852Z,4.70
2023-03-05T20:53:58.061Z,4.70
2023-03-05T20:56:28.052Z,4.70
2023-03-05T20:58:57.972Z,4.70
2023-03-05T21:01:25.390Z,4.70
2023-03-05T21:03:53.704Z,4.70
2023-03-05T21:06:20.462Z,4.70
2023-03-05T21:08:46.977Z,4.70
2023-03-05T21:11:14.542Z,4.70
2023-03-05T21:13:41.246Z,4.70
2023-03-05T21:16:09.774Z,4.60
2023-03-05T21:18:36.568Z,4.60
2023-03-05T21:21:03.687Z,4.60
2023-03-05T21:23:30.304Z,4.60
2023-03-05T21:25:56.934Z,4.60
2023-03-05T21:28:24.153Z,4.60
2023-03-05T21:30:53.534Z,4.60
2023-03-05T21:33:27.206Z,4.50
2023-03-05T21:35:54.616Z,4.60
2023-03-05T21:38:22.974Z,4.60
2023-03-05T21:40:50.663Z,4.60
2023-03-05T21:43:19.568Z,4.50
2023-03-05T21:45:47.158Z,4.50
2023-03-05T21:48:15.090Z,4.50
2023-03-05T21:50:43.985Z,4.50
2023-03-05T21:53:11.960Z,4.50
2023-03-05T21:55:47.742Z,4.50
2023-03-05T21:58:14.853Z,4.50
2023-03-05T22:00:41.418Z,4.40
2023-03-05T22:03:07.907Z,4.50
2023-03-05T22:05:34.455Z,4.40
2023-03-05T22:08:00.973Z,4.40
2023-03-05T22:10:27.526Z,4.40
2023-03-05T22:13:11.236Z,4.40
2023-03-05T22:15:46.673Z,4.40
2023-03-05T22:18:18.951Z,4.40
2023-03-05T22:20:45.750Z,4.40
2023-03-05T22:23:12.894Z,4.40
2023-03-05T22:25:39.917Z,4.40
2023-03-05T22:28:06.691Z,4.40
2023-03-05T22:30:33.403Z,4.40
2023-03-05T22:33:01.384Z,4.40
2023-03-05T22:35:28.709Z,4.40
2023-03-05T22:37:55.272Z,4.30
2023-03-05T22:40:22.545Z,4.30
2023-03-05T22:42:49.321Z,4.30
2023-03-05T22:45:17.482Z,4.30
2023-03-05T22:47:47.704Z,4.30
2023-03-05T22:50:14.669Z,4.30
2023-03-05T22:52:41.382Z,4.30
2023-03-05T22:55:08.430Z,4.30
2023-03-05T22:57:35.050Z,4.30
2023-03-05T23:00:01.544Z,4.30
2023-03-05T23:02:28.245Z,4.30
2023-03-05T23:05:00.484Z,4.30
2023-03-05T23:07:32.744Z,4.30
2023-03-05T23:10:02.067Z,4.30
2023-03-05T23:12:30.699Z,4.20
2023-03-05T23:15:00.980Z,4.20
2023-03-05T23:17:27.797Z,4.20
2023-03-05T23:19:54.285Z,4.20
2023-03-05T23:22:21.016Z,4.20
2023-03-05T23:24:47.795Z,4.20
2023-03-05T23:27:16.457Z,4.20
2023-03-05T23:30:16.461Z,4.20
2023-03-05T23:32:51.024Z,4.20
2023-03-05T23:35:21.681Z,4.20
2023-03-05T23:37:48.608Z,4.20
2023-03-05T23:40:24.738Z,4.20
2023-03-05T23:42:52.071Z,4.10
2023-03-05T23:45:20.089Z,4.10
2023-03-05T23:47:48.266Z,4.10
2023-03-05T23:50:18.322Z,4.10
2023-03-05T23:52:45.167Z,4.10
2023-03-05T23:55:26.665Z,4.10
2023-03-05T23:57:54.172Z,4.10
